createdAt,value
2023-02-20T00:01:27.471Z,4.80
2023-02-20T00:03:54.018Z,6.45
2023-02-20T00:06:20.611Z,6.20
2023-02-20T00:08:47.079Z,6.00
2023-02-20T00:11:13.506Z,5.20
2023-02-20T00:13:39.992Z,8.32
2023-02-20T00:16:06.419Z,6.15
2023-02-20T00:18:32.906Z,6.35
2023-02-20T00:20:59.342Z,5.97
2023-02-20T00:23:25.706Z,6.20
2023-02-20T00:25:52.108Z,6.45
2023-02-20T00:28:18.484Z,6.63
2023-02-20T00:30:44.971Z,5.55
2023-02-20T00:33:11.438Z,7.30
2023-02-20T00:35:37.902Z,6.85
2023-02-20T00:38:04.304Z,7.38
2023-02-20T00:40:30.752Z,6.30
2023-02-20T00:42:57.210Z,4.95
2023-02-20T00:45:23.659Z,5.88
2023-02-20T00:47:50.094Z,5.32
2023-02-20T00:50:16.548Z,6.60
2023-02-20T00:52:43.027Z,7.13
2023-02-20T00:55:09.482Z,8.23
2023-02-20T00:57:35.903Z,8.85
2023-02-20T01:00:02.346Z,5.85
2023-02-20T01:02:28.817Z,9.13
2023-02-20T01:04:55.268Z,8.32
2023-02-20T01:07:21.683Z,7.90
2023-02-20T01:09:48.065Z,8.80
2023-02-20T01:12:14.461Z,9.43
2023-02-20T01:14:40.850Z,10.20
2023-02-20T01:17:07.249Z,9.32
2023-02-20T01:19:33.782Z,9.98
2023-02-20T01:22:00.206Z,9.35
2023-02-20T01:24:26.613Z,9.45
2023-02-20T01:26:53.001Z,11.10
2023-02-20T01:29:19.432Z,8.32
2023-02-20T01:31:45.965Z,11.38
2023-02-20T01:34:12.387Z,11.00
2023-02-20T01:36:38.758Z,9.80
2023-02-20T01:39:05.162Z,9.23
2023-02-20T01:41:31.578Z,9.55
2023-02-20T01:43:57.975Z,10.35
2023-02-20T01:46:24.363Z,9.13
2023-02-20T01:48:50.797Z,9.70
2023-02-20T01:51:17.203Z,8.40
2023-02-20T01:53:43.593Z,11.45
2023-02-20T01:56:10.247Z,12.63
2023-02-20T01:58:36.842Z,12.90
2023-02-20T02:01:03.346Z,12.13
2023-02-20T02:03:29.801Z,14.88
2023-02-20T02:05:56.230Z,10.57
2023-02-20T02:08:22.608Z,13.10
2023-02-20T02:10:48.983Z,12.45
2023-02-20T02:13:15.353Z,12.50
2023-02-20T02:15:41.764Z,13.68
2023-02-20T02:18:08.155Z,12.75
2023-02-20T02:20:34.602Z,14.93
2023-02-20T02:23:01.018Z,13.13
2023-02-20T02:25:27.402Z,12.63
2023-02-20T02:27:53.823Z,11.50
2023-02-20T02:30:20.323Z,10.32
2023-02-20T02:32:46.719Z,10.05
2023-02-20T02:35:13.086Z,12.38
2023-02-20T02:37:39.502Z,11.45
2023-02-20T02:40:05.883Z,12.40
2023-02-20T02:42:32.291Z,10.80
2023-02-20T02:44:58.724Z,13.10
2023-02-20T02:47:25.144Z,11.23
2023-02-20T02:49:51.577Z,11.10
2023-02-20T02:52:17.957Z,13.43
2023-02-20T02:54:44.378Z,13.95
2023-02-20T02:57:10.820Z,13.38
2023-02-20T02:59:37.311Z,12.38
2023-02-20T03:02:03.772Z,11.98
2023-02-20T03:04:30.372Z,18.20
2023-02-20T03:06:56.804Z,11.75
2023-02-20T03:09:23.269Z,12.80
2023-02-20T03:11:49.801Z,15.65
2023-02-20T03:14:16.216Z,12.05
2023-02-20T03:16:42.689Z,12.45
2023-02-20T03:19:09.094Z,14.75
2023-02-20T03:21:35.469Z,14.40
2023-02-20T03:24:01.904Z,13.55
2023-02-20T03:26:28.367Z,13.07
2023-02-20T03:28:54.830Z,15.85
2023-02-20T03:31:21.367Z,15.55
2023-02-20T03:33:47.806Z,18.08
2023-02-20T03:36:14.519Z,18.10
2023-02-20T03:38:41.084Z,18.73
2023-02-20T03:41:07.530Z,20.25
2023-02-20T03:43:33.972Z,20.25
2023-02-20T03:46:00.505Z,24.65
2023-02-20T03:48:26.974Z,20.60
2023-02-20T03:50:53.377Z,25.17
2023-02-20T03:53:19.840Z,21.80
2023-02-20T03:55:46.221Z,21.17
2023-02-20T03:58:12.595Z,24.58
2023-02-20T04:00:38.999Z,24.70
2023-02-20T04:03:05.414Z,24.52
2023-02-20T04:05:31.841Z,24.52
2023-02-20T04:07:58.373Z,24.60
2023-02-20T04:10:24.789Z,26.98
2023-02-20T04:12:51.214Z,27.38
2023-02-20T04:15:17.606Z,29.02
2023-02-20T04:17:46.170Z,25.55
2023-02-20T04:20:13.494Z,32.30
2023-02-20T04:22:40.033Z,31.10
2023-02-20T04:25:06.461Z,30.40
2023-02-20T04:27:32.949Z,27.35
2023-02-20T04:29:59.398Z,32.38
2023-02-20T04:32:25.795Z,30.95
2023-02-20T04:34:52.214Z,28.77
2023-02-20T04:37:18.629Z,32.30
2023-02-20T04:39:45.106Z,31.27
2023-02-20T04:42:11.504Z,25.58
2023-02-20T04:44:37.869Z,23.60
2023-02-20T04:47:04.243Z,26.73
2023-02-20T04:49:30.673Z,25.65
2023-02-20T04:51:57.132Z,29.75
2023-02-20T04:54:23.595Z,27.75
2023-02-20T04:56:49.986Z,27.77
2023-02-20T04:59:16.420Z,26.05
2023-02-20T05:01:42.887Z,37.00
2023-02-20T05:04:09.386Z,28.83
2023-02-20T05:06:35.854Z,28.67
2023-02-20T05:09:02.234Z,29.77
2023-02-20T05:11:28.645Z,30.15
2023-02-20T05:13:55.012Z,27.40
2023-02-20T05:16:21.676Z,31.42
2023-02-20T05:18:48.086Z,29.20
2023-02-20T05:21:14.477Z,28.33
2023-02-20T05:23:40.937Z,28.27
2023-02-20T05:26:07.339Z,29.42
2023-02-20T05:28:33.745Z,31.15
2023-02-20T05:31:00.278Z,29.40
2023-02-20T05:33:26.710Z,30.42
2023-02-20T05:35:53.147Z,28.98
2023-02-20T05:38:19.589Z,30.55
2023-02-20T05:40:45.975Z,34.65
2023-02-20T05:43:12.350Z,28.50
2023-02-20T05:45:38.761Z,32.08
2023-02-20T05:48:05.130Z,28.25
2023-02-20T05:50:31.544Z,30.25
2023-02-20T05:52:57.998Z,26.50
2023-02-20T05:55:24.381Z,28.95
2023-02-20T05:57:50.773Z,34.42
2023-02-20T06:00:17.362Z,32.30
2023-02-20T06:02:43.775Z,37.53
2023-02-20T06:05:10.140Z,25.77
2023-02-20T06:07:36.583Z,28.85
2023-02-20T06:10:02.956Z,32.08
2023-02-20T06:12:29.337Z,32.75
2023-02-20T06:14:55.802Z,26.60
2023-02-20T06:17:22.228Z,30.80
2023-02-20T06:19:49.811Z,29.73
2023-02-20T06:22:16.196Z,25.48
2023-02-20T06:24:42.623Z,24.23
2023-02-20T06:27:09.022Z,26.10
2023-02-20T06:29:35.401Z,29.20
2023-02-20T06:32:01.965Z,34.45
2023-02-20T06:34:28.445Z,27.17
2023-02-20T06:36:54.854Z,30.75
2023-02-20T06:39:21.371Z,31.15
2023-02-20T06:41:47.762Z,31.40
2023-02-20T06:44:14.124Z,26.95
2023-02-20T06:46:40.543Z,31.40
2023-02-20T06:49:07.025Z,25.92
2023-02-20T06:51:33.529Z,30.13
2023-02-20T06:53:59.994Z,31.15
2023-02-20T06:56:26.460Z,29.20
2023-02-20T06:58:52.905Z,24.17
2023-02-20T07:01:19.294Z,26.63
2023-02-20T07:03:45.742Z,24.52
2023-02-20T07:06:12.388Z,25.48
2023-02-20T07:08:39.030Z,30.20
2023-02-20T07:11:05.427Z,31.45
2023-02-20T07:13:31.867Z,29.65
2023-02-20T07:15:58.354Z,29.70
2023-02-20T07:18:24.813Z,25.48
2023-02-20T07:20:52.585Z,31.55
2023-02-20T07:23:19.988Z,27.95
2023-02-20T07:25:46.419Z,24.65
2023-02-20T07:28:12.813Z,23.50
2023-02-20T07:30:39.383Z,29.10
2023-02-20T07:33:05.834Z,24.63
2023-02-20T07:35:32.224Z,23.60
2023-02-20T07:37:58.644Z,23.45
2023-02-20T07:40:25.033Z,26.02
2023-02-20T07:42:51.679Z,22.98
2023-02-20T07:45:18.125Z,24.60
2023-02-20T07:47:44.554Z,21.20
2023-02-20T07:50:10.983Z,17.58
2023-02-20T07:52:37.401Z,23.98
2023-02-20T07:55:03.830Z,26.00
2023-02-20T07:57:30.230Z,23.42
2023-02-20T07:59:56.672Z,19.77
2023-02-20T08:02:23.112Z,23.30
2023-02-20T08:04:49.666Z,22.90
2023-02-20T08:07:16.133Z,21.98
2023-02-20T08:09:42.512Z,21.17
2023-02-20T08:12:08.977Z,23.92
2023-02-20T08:14:35.409Z,23.42
2023-02-20T08:17:01.816Z,15.30
2023-02-20T08:19:28.207Z,17.67
2023-02-20T08:21:54.642Z,17.77
2023-02-20T08:24:21.095Z,17.15
2023-02-20T08:26:47.537Z,14.80
2023-02-20T08:29:13.984Z,13.43
2023-02-20T08:31:40.477Z,14.35
2023-02-20T08:34:06.933Z,15.77
2023-02-20T08:36:33.397Z,14.55
2023-02-20T08:38:59.833Z,18.25
2023-02-20T08:41:26.255Z,21.67
2023-02-20T08:43:52.720Z,19.15
2023-02-20T08:46:19.155Z,15.55
2023-02-20T08:48:45.571Z,16.77
2023-02-20T08:51:11.996Z,18.58
2023-02-20T08:53:38.392Z,19.17
2023-02-20T08:56:04.787Z,18.00
2023-02-20T08:58:31.173Z,18.90
2023-02-20T09:00:57.627Z,17.50
2023-02-20T09:03:25.118Z,21.13
2023-02-20T09:05:51.671Z,13.40
2023-02-20T09:08:18.137Z,18.67
2023-02-20T09:10:44.830Z,14.50
2023-02-20T09:13:11.432Z,13.95
2023-02-20T09:15:38.257Z,17.02
2023-02-20T09:18:04.641Z,18.45
2023-02-20T09:20:31.032Z,15.60
2023-02-20T09:22:57.441Z,15.02
2023-02-20T09:25:23.858Z,16.70
2023-02-20T09:27:50.268Z,15.05
2023-02-20T09:30:16.720Z,19.65
2023-02-20T09:32:43.194Z,16.95
2023-02-20T09:35:09.623Z,16.98
2023-02-20T09:37:36.008Z,22.08
2023-02-20T09:40:02.467Z,13.25
2023-02-20T09:42:28.849Z,15.35
2023-02-20T09:44:55.283Z,16.27
2023-02-20T09:47:21.826Z,15.32
2023-02-20T09:49:48.232Z,13.60
2023-02-20T09:52:14.794Z,16.60
2023-02-20T09:54:41.245Z,16.55
2023-02-20T09:57:07.625Z,17.27
2023-02-20T09:59:34.064Z,15.63
2023-02-20T10:02:00.574Z,13.85
2023-02-20T10:04:27.059Z,16.92
2023-02-20T10:06:53.466Z,15.43
2023-02-20T10:09:19.860Z,18.40
2023-02-20T10:11:46.287Z,17.73
2023-02-20T10:14:12.766Z,15.52
2023-02-20T10:16:39.199Z,14.90
2023-02-20T10:19:05.646Z,15.90
2023-02-20T10:21:32.041Z,12.88
2023-02-20T10:24:05.553Z,16.05
2023-02-20T10:26:32.580Z,15.27
2023-02-20T10:28:59.098Z,15.73
2023-02-20T10:31:25.692Z,15.82
2023-02-20T10:33:52.144Z,15.48
2023-02-20T10:36:18.596Z,14.82
2023-02-20T10:38:45.034Z,15.50
2023-02-20T10:41:11.441Z,19.38
2023-02-20T10:43:37.845Z,14.02
2023-02-20T10:46:04.319Z,11.93
2023-02-20T10:48:30.762Z,15.68
2023-02-20T10:50:57.213Z,15.75
2023-02-20T10:53:23.588Z,14.32
2023-02-20T10:55:49.958Z,15.65
2023-02-20T10:58:16.419Z,14.57
2023-02-20T11:00:42.917Z,14.65
2023-02-20T11:03:09.369Z,14.57
2023-02-20T11:05:35.789Z,13.20
2023-02-20T11:08:02.224Z,13.15
2023-02-20T11:10:28.609Z,15.68
2023-02-20T11:12:55.004Z,12.85
2023-02-20T11:15:21.657Z,15.60
2023-02-20T11:17:48.061Z,16.67
2023-02-20T11:20:15.142Z,16.15
2023-02-20T11:22:41.581Z,15.68
2023-02-20T11:25:07.949Z,13.30
2023-02-20T11:27:34.394Z,16.45
2023-02-20T11:30:00.824Z,15.80
2023-02-20T11:32:27.212Z,14.50
2023-02-20T11:34:53.633Z,13.82
2023-02-20T11:37:20.028Z,12.80
2023-02-20T11:39:46.441Z,16.75
2023-02-20T11:42:12.855Z,13.68
2023-02-20T11:44:39.344Z,14.75
2023-02-20T11:47:05.798Z,12.50
2023-02-20T11:49:32.199Z,17.35
2023-02-20T11:51:58.702Z,12.20
2023-02-20T11:54:25.104Z,13.75
2023-02-20T11:56:51.540Z,16.98
2023-02-20T11:59:17.995Z,20.48
2023-02-20T12:01:52.453Z,13.18
2023-02-20T12:04:25.819Z,17.90
2023-02-20T12:06:52.442Z,12.90
2023-02-20T12:09:18.871Z,13.65
2023-02-20T12:11:45.279Z,10.52
2023-02-20T12:14:11.743Z,20.88
2023-02-20T12:16:38.215Z,16.77
2023-02-20T12:19:04.656Z,15.13
2023-02-20T12:21:31.129Z,14.10
2023-02-20T12:23:57.572Z,11.02
2023-02-20T12:26:23.975Z,17.75
2023-02-20T12:28:50.339Z,15.35
2023-02-20T12:31:16.866Z,19.23
2023-02-20T12:33:43.294Z,17.00
2023-02-20T12:36:09.728Z,15.48
2023-02-20T12:38:36.153Z,22.10
2023-02-20T12:41:02.605Z,16.50
2023-02-20T12:43:29.000Z,17.83
2023-02-20T12:45:55.363Z,17.98
2023-02-20T12:48:21.914Z,21.67
2023-02-20T12:50:48.334Z,17.98
2023-02-20T12:53:14.757Z,19.38
2023-02-20T12:55:41.209Z,19.33
2023-02-20T12:58:07.674Z,19.75
2023-02-20T13:00:34.108Z,18.88
2023-02-20T13:03:00.523Z,19.42
2023-02-20T13:05:26.905Z,13.52
2023-02-20T13:07:53.267Z,15.82
2023-02-20T13:10:19.697Z,16.00
2023-02-20T13:12:46.110Z,19.63
2023-02-20T13:15:12.570Z,18.95
2023-02-20T13:17:38.970Z,16.95
2023-02-20T13:20:05.400Z,18.17
2023-02-20T13:22:31.817Z,16.80
2023-02-20T13:24:58.262Z,20.25
2023-02-20T13:27:24.706Z,20.60
2023-02-20T13:29:51.106Z,20.70
2023-02-20T13:32:17.593Z,18.85
2023-02-20T13:34:44.055Z,17.35
2023-02-20T13:37:10.481Z,19.17
2023-02-20T13:39:36.869Z,18.95
2023-02-20T13:42:03.254Z,18.25
2023-02-20T13:44:29.679Z,18.02
2023-02-20T13:46:56.127Z,16.13
2023-02-20T13:49:22.578Z,18.90
2023-02-20T13:51:48.969Z,18.75
2023-02-20T13:54:15.386Z,16.60
2023-02-20T13:56:41.772Z,16.65
2023-02-20T13:59:08.159Z,21.13
2023-02-20T14:01:34.643Z,18.27
2023-02-20T14:04:01.084Z,21.17
2023-02-20T14:06:27.450Z,18.25
2023-02-20T14:08:53.860Z,23.45
2023-02-20T14:11:20.229Z,19.13
2023-02-20T14:13:46.684Z,14.77
2023-02-20T14:16:13.428Z,16.42
2023-02-20T14:18:39.964Z,20.73
2023-02-20T14:21:06.469Z,22.50
2023-02-20T14:23:32.920Z,23.23
2023-02-20T14:26:01.141Z,19.17
2023-02-20T14:28:27.798Z,21.10
2023-02-20T14:30:54.252Z,24.08
2023-02-20T14:33:20.682Z,24.15
2023-02-20T14:35:47.139Z,23.60
2023-02-20T14:38:13.540Z,20.75
2023-02-20T14:40:39.952Z,22.27
2023-02-20T14:43:06.335Z,26.17
2023-02-20T14:45:32.859Z,22.95
2023-02-20T14:47:59.385Z,21.83
2023-02-20T14:50:25.832Z,22.50
2023-02-20T14:52:52.290Z,19.05
2023-02-20T14:55:18.714Z,21.05
2023-02-20T14:57:45.104Z,21.30
2023-02-20T15:00:11.534Z,19.70
2023-02-20T15:02:37.985Z,17.20
2023-02-20T15:05:04.405Z,18.50
2023-02-20T15:07:30.855Z,18.83
2023-02-20T15:09:57.284Z,20.95
2023-02-20T15:12:23.804Z,18.83
2023-02-20T15:14:50.250Z,17.63
2023-02-20T15:17:16.688Z,20.58
2023-02-20T15:19:43.085Z,20.88
2023-02-20T15:22:09.467Z,19.70
2023-02-20T15:24:35.912Z,20.08
2023-02-20T15:27:02.316Z,23.92
2023-02-20T15:29:28.688Z,23.63
2023-02-20T15:31:55.147Z,21.35
2023-02-20T15:34:21.571Z,23.38
2023-02-20T15:36:48.252Z,22.70
2023-02-20T15:39:14.994Z,24.27
2023-02-20T15:41:41.446Z,24.70
2023-02-20T15:44:07.884Z,23.50
2023-02-20T15:46:34.356Z,24.30
2023-02-20T15:49:01.879Z,20.38
2023-02-20T15:51:29.629Z,19.77
2023-02-20T15:53:56.166Z,23.80
2023-02-20T15:56:22.788Z,25.27
2023-02-20T15:58:49.237Z,21.13
2023-02-20T16:01:15.697Z,25.52
2023-02-20T16:03:51.691Z,32.63
2023-02-20T16:06:19.206Z,24.50
2023-02-20T16:08:45.697Z,23.50
2023-02-20T16:11:12.402Z,27.08
2023-02-20T16:13:39.067Z,22.80
2023-02-20T16:16:07.383Z,23.10
2023-02-20T16:18:36.001Z,21.77
2023-02-20T16:21:02.504Z,25.73
2023-02-20T16:23:28.993Z,24.30
2023-02-20T16:25:55.445Z,21.77
2023-02-20T16:28:21.814Z,19.80
2023-02-20T16:30:48.336Z,20.75
2023-02-20T16:33:14.856Z,25.33
2023-02-20T16:35:41.278Z,16.42
2023-02-20T16:38:07.712Z,21.98
2023-02-20T16:40:34.181Z,22.65
2023-02-20T16:43:00.574Z,22.02
2023-02-20T16:45:26.951Z,23.77
2023-02-20T16:47:53.604Z,21.08
2023-02-20T16:50:20.037Z,19.35
2023-02-20T16:52:46.472Z,25.13
2023-02-20T16:55:12.931Z,22.75
2023-02-20T16:57:39.317Z,25.65
2023-02-20T17:00:05.762Z,24.83
2023-02-20T17:02:32.208Z,24.83
2023-02-20T17:04:58.948Z,21.02
2023-02-20T17:07:25.416Z,28.15
2023-02-20T17:09:51.874Z,22.85
2023-02-20T17:12:18.304Z,24.88
2023-02-20T17:14:44.734Z,21.10
2023-02-20T17:17:11.152Z,25.48
2023-02-20T17:19:37.560Z,22.20
2023-02-20T17:22:04.036Z,25.42
2023-02-20T17:24:30.490Z,27.85
2023-02-20T17:26:57.037Z,23.05
2023-02-20T17:29:23.782Z,21.40
2023-02-20T17:31:50.223Z,20.30
2023-02-20T17:34:16.746Z,22.25
2023-02-20T17:36:43.142Z,20.85
2023-02-20T17:39:09.606Z,19.17
2023-02-20T17:41:36.043Z,22.85
2023-02-20T17:44:02.499Z,21.05
2023-02-20T17:46:28.990Z,20.77
2023-02-20T17:48:55.455Z,20.70
2023-02-20T17:51:21.872Z,20.30
2023-02-20T17:53:48.294Z,21.25
2023-02-20T17:56:14.923Z,22.30
2023-02-20T17:58:41.569Z,21.35
2023-02-20T18:01:08.061Z,18.83
2023-02-20T18:03:34.703Z,18.55
2023-02-20T18:06:01.424Z,22.02
2023-02-20T18:08:27.793Z,17.55
2023-02-20T18:10:54.235Z,18.98
2023-02-20T18:13:20.686Z,17.83
2023-02-20T18:15:47.085Z,17.42
2023-02-20T18:18:14.597Z,21.63
2023-02-20T18:20:41.109Z,22.77
2023-02-20T18:23:07.630Z,25.42
2023-02-20T18:25:40.689Z,22.48
2023-02-20T18:28:07.615Z,20.52
2023-02-20T18:30:34.029Z,20.17
2023-02-20T18:33:00.434Z,21.63
2023-02-20T18:35:26.873Z,17.25
2023-02-20T18:37:53.338Z,23.27
2023-02-20T18:40:19.800Z,23.35
2023-02-20T18:42:46.194Z,24.58
2023-02-20T18:45:12.611Z,20.33
2023-02-20T18:47:39.003Z,23.25
2023-02-20T18:50:05.480Z,24.55
2023-02-20T18:52:31.923Z,27.23
2023-02-20T18:54:58.615Z,22.67
2023-02-20T18:57:25.067Z,24.60
2023-02-20T18:59:51.520Z,25.17
2023-02-20T19:02:18.034Z,22.77
2023-02-20T19:04:44.510Z,20.55
2023-02-20T19:07:10.987Z,24.33
2023-02-20T19:09:37.443Z,19.70
2023-02-20T19:12:03.886Z,19.85
2023-02-20T19:14:30.324Z,19.17
2023-02-20T19:16:56.753Z,21.00
2023-02-20T19:19:24.245Z,20.63
2023-02-20T19:21:50.922Z,20.85
2023-02-20T19:24:17.379Z,19.77
2023-02-20T19:26:43.878Z,23.58
2023-02-20T19:29:10.312Z,20.95
2023-02-20T19:31:36.789Z,20.55
2023-02-20T19:34:03.226Z,19.85
2023-02-20T19:36:29.618Z,25.73
2023-02-20T19:38:56.062Z,24.38
2023-02-20T19:41:22.841Z,20.77
2023-02-20T19:43:49.211Z,26.92
2023-02-20T19:46:16.004Z,23.00
2023-02-20T19:48:42.734Z,19.30
2023-02-20T19:51:09.174Z,19.08
2023-02-20T19:53:35.566Z,20.30
2023-02-20T19:56:01.953Z,24.35
2023-02-20T19:58:28.379Z,27.40
2023-02-20T20:00:54.794Z,27.55
2023-02-20T20:03:21.245Z,27.55
2023-02-20T20:05:47.651Z,28.55
2023-02-20T20:08:14.031Z,28.27
2023-02-20T20:10:40.490Z,29.75
2023-02-20T20:13:06.867Z,33.13
2023-02-20T20:15:33.249Z,27.20
2023-02-20T20:17:59.727Z,27.00
2023-02-20T20:20:26.190Z,34.33
2023-02-20T20:22:52.885Z,31.08
2023-02-20T20:25:19.369Z,30.98
2023-02-20T20:27:45.793Z,35.38
2023-02-20T20:30:12.237Z,31.58
2023-02-20T20:32:38.640Z,33.72
2023-02-20T20:35:05.020Z,25.20
2023-02-20T20:37:31.450Z,30.38
2023-02-20T20:39:57.846Z,30.60
2023-02-20T20:42:24.330Z,29.02
2023-02-20T20:44:50.736Z,31.92
2023-02-20T20:47:17.201Z,34.17
2023-02-20T20:49:43.604Z,35.80
2023-02-20T20:52:09.981Z,36.55
2023-02-20T20:54:36.383Z,32.47
2023-02-20T20:57:02.817Z,35.53
2023-02-20T20:59:29.304Z,34.45
2023-02-20T21:01:55.816Z,34.72
2023-02-20T21:04:22.320Z,36.03
2023-02-20T21:06:48.750Z,39.90
2023-02-20T21:09:15.129Z,35.55
2023-02-20T21:11:41.645Z,32.08
2023-02-20T21:14:08.079Z,31.77
2023-02-20T21:16:34.461Z,39.83
2023-02-20T21:19:00.937Z,35.45
2023-02-20T21:21:27.678Z,30.55
2023-02-20T21:23:54.111Z,41.55
2023-02-20T21:26:20.511Z,34.33
2023-02-20T21:28:46.909Z,34.88
2023-02-20T21:31:13.662Z,33.20
2023-02-20T21:33:40.293Z,36.72
2023-02-20T21:36:06.684Z,33.50
2023-02-20T21:38:33.130Z,33.40
2023-02-20T21:40:59.588Z,41.03
2023-02-20T21:43:25.965Z,34.92
2023-02-20T21:45:52.592Z,34.65
2023-02-20T21:48:19.041Z,36.40
2023-02-20T21:50:45.494Z,41.97
2023-02-20T21:53:11.966Z,43.72
2023-02-20T21:55:38.436Z,45.45
2023-02-20T21:58:04.900Z,48.65
2023-02-20T22:00:31.304Z,45.20
2023-02-20T22:02:57.954Z,36.50
2023-02-20T22:05:24.417Z,34.78
2023-02-20T22:07:50.875Z,39.53
2023-02-20T22:10:17.319Z,42.95
2023-02-20T22:12:43.706Z,44.55
2023-02-20T22:15:10.091Z,47.20
2023-02-20T22:17:36.558Z,44.47
2023-02-20T22:20:03.001Z,43.15
2023-02-20T22:22:29.397Z,40.42
2023-02-20T22:24:55.829Z,46.80
2023-02-20T22:27:22.201Z,48.33
2023-02-20T22:29:48.636Z,45.83
2023-02-20T22:32:15.155Z,47.70
2023-02-20T22:34:41.655Z,46.85
2023-02-20T22:37:08.127Z,46.35
2023-02-20T22:39:34.553Z,43.92
2023-02-20T22:42:00.962Z,38.85
2023-02-20T22:44:27.590Z,40.97
2023-02-20T22:46:54.226Z,38.65
2023-02-20T22:49:20.715Z,39.33
2023-02-20T22:51:47.149Z,49.30
2023-02-20T22:54:13.599Z,45.30
2023-02-20T22:56:40.015Z,40.75
2023-02-20T22:59:06.404Z,48.53
2023-02-20T23:01:32.770Z,41.78
2023-02-20T23:03:59.183Z,38.00
2023-02-20T23:06:25.570Z,39.55
2023-02-20T23:08:52.019Z,39.50
2023-02-20T23:11:18.420Z,42.65
2023-02-20T23:13:45.784Z,40.58
2023-02-20T23:16:13.555Z,36.90
2023-02-20T23:18:40.061Z,45.15
2023-02-20T23:21:06.479Z,41.90
2023-02-20T23:23:32.908Z,41.13
2023-02-20T23:25:59.360Z,41.05
2023-02-20T23:28:36.577Z,38.60
2023-02-20T23:31:03.562Z,40.58
2023-02-20T23:33:29.942Z,44.00
2023-02-20T23:35:56.329Z,42.72
2023-02-20T23:38:22.984Z,43.22
2023-02-20T23:40:49.446Z,39.97
2023-02-20T23:43:15.888Z,41.38
2023-02-20T23:45:42.396Z,36.08
2023-02-20T23:48:08.842Z,43.53
2023-02-20T23:50:35.230Z,39.90
2023-02-20T23:53:01.607Z,40.78
2023-02-20T23:55:27.990Z,39.08
2023-02-20T23:57:54.446Z,46.72
